Airport View

Enter AWOS ICAO identifier for current METAR.

ex. KFNL

KSCR 200035Z AUTO 00000KT 10SM CLR 14/14 A3024 RMK AO2 T01390138

20 Oct 2020 00:43

Frequency: 125.775

Phone: 919-663-1252

Other Area AWOS: KHBI - KBUY - KTTA - KIGX

TAF AMD KGSO 200019Z 2000/2024 00000KT P6SM SCT030 BKN250 FM200800 00000KT 4SM BR SCT003 TEMPO 2010/2014 2SM BR SCT002 FM201600 VRB03KT P6SM SCT250